sensor_id;sensor_type;location;lat;lon;timestamp;temperature;humidity
19449;DHT22;9863;49.404;8.246;2023-02-22T00:00:54;3.30;99.90
19449;DHT22;9863;49.404;8.246;2023-02-22T00:03:27;3.30;99.90
19449;DHT22;9863;49.404;8.246;2023-02-22T00:05:59;3.30;99.90
19449;DHT22;9863;49.404;8.246;2023-02-22T00:08:33;3.40;99.90
19449;DHT22;9863;49.404;8.246;2023-02-22T00:11:07;3.40;99.90
19449;DHT22;9863;49.404;8.246;2023-02-22T00:13:35;3.30;99.90
19449;DHT22;9863;49.404;8.246;2023-02-22T00:16:03;3.30;99.90
19449;DHT22;9863;49.404;8.246;2023-02-22T00:18:31;3.20;99.90
19449;DHT22;9863;49.404;8.246;2023-02-22T00:20:59;3.30;99.90
19449;DHT22;9863;49.404;8.246;2023-02-22T00:23:28;3.40;99.90
19449;DHT22;9863;49.404;8.246;2023-02-22T00:25:58;3.40;99.90
19449;DHT22;9863;49.404;8.246;2023-02-22T00:28:26;3.70;99.90
19449;DHT22;9863;49.404;8.246;2023-02-22T00:30:53;3.90;99.90
19449;DHT22;9863;49.404;8.246;2023-02-22T00:33:21;4.10;99.90
19449;DHT22;9863;49.404;8.246;2023-02-22T00:35:48;4.20;99.90
19449;DHT22;9863;49.404;8.246;2023-02-22T00:38:17;4.20;99.90
19449;DHT22;9863;49.404;8.246;2023-02-22T00:40:45;4.30;99.90
19449;DHT22;9863;49.404;8.246;2023-02-22T00:43:12;4.30;99.90
19449;DHT22;9863;49.404;8.246;2023-02-22T00:45:40;4.20;99.90
19449;DHT22;9863;49.404;8.246;2023-02-22T00:48:08;4.10;99.90
19449;DHT22;9863;49.404;8.246;2023-02-22T00:50:36;4.00;99.90
19449;DHT22;9863;49.404;8.246;2023-02-22T00:53:04;4.00;99.90
19449;DHT22;9863;49.404;8.246;2023-02-22T00:55:34;4.20;99.90
19449;DHT22;9863;49.404;8.246;2023-02-22T00:58:03;3.90;99.90
19449;DHT22;9863;49.404;8.246;2023-02-22T01:00:37;3.90;99.90
19449;DHT22;9863;49.404;8.246;2023-02-22T01:03:07;4.00;99.90
19449;DHT22;9863;49.404;8.246;2023-02-22T01:05:37;4.00;99.90
19449;DHT22;9863;49.404;8.246;2023-02-22T01:08:06;3.80;99.90
19449;DHT22;9863;49.404;8.246;2023-02-22T01:10:35;3.60;99.90
19449;DHT22;9863;49.404;8.246;2023-02-22T01:13:03;3.50;99.90
19449;DHT22;9863;49.404;8.246;2023-02-22T01:15:36;3.60;99.90
19449;DHT22;9863;49.404;8.246;2023-02-22T01:18:05;3.50;99.90
19449;DHT22;9863;49.404;8.246;2023-02-22T01:20:33;3.60;99.90
19449;DHT22;9863;49.404;8.246;2023-02-22T01:23:02;3.60;99.90
19449;DHT22;9863;49.404;8.246;2023-02-22T01:25:32;3.70;99.90
19449;DHT22;9863;49.404;8.246;2023-02-22T01:28:01;3.60;99.90
19449;DHT22;9863;49.404;8.246;2023-02-22T01:30:31;3.60;99.90
19449;DHT22;9863;49.404;8.246;2023-02-22T01:33:01;3.70;99.90
19449;DHT22;9863;49.404;8.246;2023-02-22T01:35:32;3.70;99.90
19449;DHT22;9863;49.404;8.246;2023-02-22T01:38:00;3.80;99.90
19449;DHT22;9863;49.404;8.246;2023-02-22T01:40:33;3.70;99.90
19449;DHT22;9863;49.404;8.246;2023-02-22T01:43:05;3.70;99.90
19449;DHT22;9863;49.404;8.246;2023-02-22T01:45:52;3.70;99.90
19449;DHT22;9863;49.404;8.246;2023-02-22T01:48:41;3.70;99.90
19449;DHT22;9863;49.404;8.246;2023-02-22T01:51:24;3.70;99.90
19449;DHT22;9863;49.404;8.246;2023-02-22T01:53:54;3.70;99.90
19449;DHT22;9863;49.404;8.246;2023-02-22T01:56:26;3.70;99.90
19449;DHT22;9863;49.404;8.246;2023-02-22T01:59:02;3.70;99.90
19449;DHT22;9863;49.404;8.246;2023-02-22T02:01:34;3.70;99.90
19449;DHT22;9863;49.404;8.246;2023-02-22T02:04:06;3.60;99.90
19449;DHT22;9863;49.404;8.246;2023-02-22T02:06:36;3.50;99.90
19449;DHT22;9863;49.404;8.246;2023-02-22T02:11:43;3.40;99.90
19449;DHT22;9863;49.404;8.246;2023-02-22T02:14:12;3.60;99.90
19449;DHT22;9863;49.404;8.246;2023-02-22T02:16:42;3.40;99.90
19449;DHT22;9863;49.404;8.246;2023-02-22T02:37:10;3.40;99.90
19449;DHT22;9863;49.404;8.246;2023-02-22T02:39:53;3.40;99.90
19449;DHT22;9863;49.404;8.246;2023-02-22T02:42:27;3.30;99.90
19449;DHT22;9863;49.404;8.246;2023-02-22T02:45:14;3.30;99.90
19449;DHT22;9863;49.404;8.246;2023-02-22T02:47:48;3.30;99.90
19449;DHT22;9863;49.404;8.246;2023-02-22T02:50:23;3.20;99.90
19449;DHT22;9863;49.404;8.246;2023-02-22T02:52:53;3.30;99.90
19449;DHT22;9863;49.404;8.246;2023-02-22T02:55:21;3.30;99.90
19449;DHT22;9863;49.404;8.246;2023-02-22T02:57:49;3.20;99.90
19449;DHT22;9863;49.404;8.246;2023-02-22T03:00:20;3.30;99.90
19449;DHT22;9863;49.404;8.246;2023-02-22T03:09:16;3.10;99.90
19449;DHT22;9863;49.404;8.246;2023-02-22T03:19:48;3.00;99.90
19449;DHT22;9863;49.404;8.246;2023-02-22T03:22:32;3.10;99.90
19449;DHT22;9863;49.404;8.246;2023-02-22T03:25:19;3.00;99.90
19449;DHT22;9863;49.404;8.246;2023-02-22T03:28:03;3.10;99.90
19449;DHT22;9863;49.404;8.246;2023-02-22T03:30:46;3.10;99.90
19449;DHT22;9863;49.404;8.246;2023-02-22T03:33:40;3.00;99.90
19449;DHT22;9863;49.404;8.246;2023-02-22T03:36:16;2.90;99.90
19449;DHT22;9863;49.404;8.246;2023-02-22T03:38:47;3.00;99.90
19449;DHT22;9863;49.404;8.246;2023-02-22T03:41:18;2.80;99.90
19449;DHT22;9863;49.404;8.246;2023-02-22T03:44:11;2.90;99.90
19449;DHT22;9863;49.404;8.246;2023-02-22T03:46:40;2.90;99.90
19449;DHT22;9863;49.404;8.246;2023-02-22T03:51:47;2.70;99.90
19449;DHT22;9863;49.404;8.246;2023-02-22T03:54:14;2.80;99.90
19449;DHT22;9863;49.404;8.246;2023-02-22T03:59:50;2.60;99.90
19449;DHT22;9863;49.404;8.246;2023-02-22T04:02:17;2.60;99.90
19449;DHT22;9863;49.404;8.246;2023-02-22T04:04:45;2.60;99.90
19449;DHT22;9863;49.404;8.246;2023-02-22T04:07:13;2.60;99.90
19449;DHT22;9863;49.404;8.246;2023-02-22T04:09:40;2.50;99.90
19449;DHT22;9863;49.404;8.246;2023-02-22T04:12:07;2.50;99.90
19449;DHT22;9863;49.404;8.246;2023-02-22T04:14:34;2.60;99.90
19449;DHT22;9863;49.404;8.246;2023-02-22T04:17:01;2.60;99.90
19449;DHT22;9863;49.404;8.246;2023-02-22T04:19:28;2.80;99.90
19449;DHT22;9863;49.404;8.246;2023-02-22T04:21:55;2.50;99.90
19449;DHT22;9863;49.404;8.246;2023-02-22T04:24:22;2.10;99.90
19449;DHT22;9863;49.404;8.246;2023-02-22T04:26:49;2.20;99.90
19449;DHT22;9863;49.404;8.246;2023-02-22T04:29:16;2.20;99.90
19449;DHT22;9863;49.404;8.246;2023-02-22T04:31:43;2.10;99.90
19449;DHT22;9863;49.404;8.246;2023-02-22T04:34:10;2.10;99.90
19449;DHT22;9863;49.404;8.246;2023-02-22T04:36:37;2.30;99.90
19449;DHT22;9863;49.404;8.246;2023-02-22T04:39:04;2.20;99.90
19449;DHT22;9863;49.404;8.246;2023-02-22T04:41:31;2.10;99.90
19449;DHT22;9863;49.404;8.246;2023-02-22T04:44:00;2.10;99.90
19449;DHT22;9863;49.404;8.246;2023-02-22T04:46:27;2.30;99.90
19449;DHT22;9863;49.404;8.246;2023-02-22T04:48:54;2.30;99.90
19449;DHT22;9863;49.404;8.246;2023-02-22T04:51:21;2.10;99.90
19449;DHT22;9863;49.404;8.246;2023-02-22T04:53:48;2.10;99.90
19449;DHT22;9863;49.404;8.246;2023-02-22T04:56:18;2.00;99.90
19449;DHT22;9863;49.404;8.246;2023-02-22T04:58:46;2.00;99.90
19449;DHT22;9863;49.404;8.246;2023-02-22T05:01:14;2.10;99.90
19449;DHT22;9863;49.404;8.246;2023-02-22T05:03:42;2.10;99.90
19449;DHT22;9863;49.404;8.246;2023-02-22T05:06:10;2.00;99.90
19449;DHT22;9863;49.404;8.246;2023-02-22T05:08:38;2.10;99.90
19449;DHT22;9863;49.404;8.246;2023-02-22T05:11:05;2.20;99.90
19449;DHT22;9863;49.404;8.246;2023-02-22T05:13:32;1.90;99.90
19449;DHT22;9863;49.404;8.246;2023-02-22T05:15:59;1.90;99.90
19449;DHT22;9863;49.404;8.246;2023-02-22T05:18:26;2.10;99.90
19449;DHT22;9863;49.404;8.246;2023-02-22T05:20:53;2.00;99.90
19449;DHT22;9863;49.404;8.246;2023-02-22T05:23:20;2.00;99.90
19449;DHT22;9863;49.404;8.246;2023-02-22T05:25:47;2.00;99.90
19449;DHT22;9863;49.404;8.246;2023-02-22T05:28:14;2.20;99.90
19449;DHT22;9863;49.404;8.246;2023-02-22T05:30:42;1.90;99.90
19449;DHT22;9863;49.404;8.246;2023-02-22T05:33:09;1.90;99.90
19449;DHT22;9863;49.404;8.246;2023-02-22T05:35:36;2.00;99.90
19449;DHT22;9863;49.404;8.246;2023-02-22T05:38:04;2.00;99.90
19449;DHT22;9863;49.404;8.246;2023-02-22T05:40:33;1.80;99.90
19449;DHT22;9863;49.404;8.246;2023-02-22T05:43:01;2.00;99.90
19449;DHT22;9863;49.404;8.246;2023-02-22T05:45:30;1.90;99.90
19449;DHT22;9863;49.404;8.246;2023-02-22T05:48:07;1.90;99.90
19449;DHT22;9863;49.404;8.246;2023-02-22T05:50:44;1.80;99.90
19449;DHT22;9863;49.404;8.246;2023-02-22T05:53:11;1.80;99.90
19449;DHT22;9863;49.404;8.246;2023-02-22T05:55:38;2.10;99.90
19449;DHT22;9863;49.404;8.246;2023-02-22T05:58:05;1.80;99.90
19449;DHT22;9863;49.404;8.246;2023-02-22T06:00:32;1.80;99.90
19449;DHT22;9863;49.404;8.246;2023-02-22T06:03:05;2.00;99.90
19449;DHT22;9863;49.404;8.246;2023-02-22T06:05:34;2.10;99.90
19449;DHT22;9863;49.404;8.246;2023-02-22T06:08:03;2.10;99.90
19449;DHT22;9863;49.404;8.246;2023-02-22T06:10:31;2.10;99.90
19449;DHT22;9863;49.404;8.246;2023-02-22T06:13:00;1.90;99.90
19449;DHT22;9863;49.404;8.246;2023-02-22T06:15:29;2.00;99.90
19449;DHT22;9863;49.404;8.246;2023-02-22T06:17:56;2.00;99.90
19449;DHT22;9863;49.404;8.246;2023-02-22T06:20:26;2.10;99.90
19449;DHT22;9863;49.404;8.246;2023-02-22T06:22:55;2.00;99.90
19449;DHT22;9863;49.404;8.246;2023-02-22T06:25:29;1.90;99.90
19449;DHT22;9863;49.404;8.246;2023-02-22T06:27:58;2.00;99.90
19449;DHT22;9863;49.404;8.246;2023-02-22T06:30:27;2.00;99.90
19449;DHT22;9863;49.404;8.246;2023-02-22T06:32:54;2.00;99.90
19449;DHT22;9863;49.404;8.246;2023-02-22T06:35:22;1.90;99.90
19449;DHT22;9863;49.404;8.246;2023-02-22T06:37:49;2.30;99.90
19449;DHT22;9863;49.404;8.246;2023-02-22T06:40:16;1.70;99.90
19449;DHT22;9863;49.404;8.246;2023-02-22T06:42:47;1.80;99.90
19449;DHT22;9863;49.404;8.246;2023-02-22T06:45:16;1.90;99.90
19449;DHT22;9863;49.404;8.246;2023-02-22T06:47:44;2.00;99.90
19449;DHT22;9863;49.404;8.246;2023-02-22T06:52:51;1.90;99.90
19449;DHT22;9863;49.404;8.246;2023-02-22T06:55:21;2.10;99.90
19449;DHT22;9863;49.404;8.246;2023-02-22T06:57:52;2.00;99.90
19449;DHT22;9863;49.404;8.246;2023-02-22T07:00:22;2.60;99.90
19449;DHT22;9863;49.404;8.246;2023-02-22T07:02:52;2.20;99.90
19449;DHT22;9863;49.404;8.246;2023-02-22T07:05:20;2.20;99.90
19449;DHT22;9863;49.404;8.246;2023-02-22T07:07:50;2.10;99.90
19449;DHT22;9863;49.404;8.246;2023-02-22T07:10:27;2.90;99.90
19449;DHT22;9863;49.404;8.246;2023-02-22T07:12:55;2.20;99.90
19449;DHT22;9863;49.404;8.246;2023-02-22T07:15:24;2.30;99.90
19449;DHT22;9863;49.404;8.246;2023-02-22T07:17:53;2.20;99.90
19449;DHT22;9863;49.404;8.246;2023-02-22T07:20:22;2.10;99.90
19449;DHT22;9863;49.404;8.246;2023-02-22T07:22:50;2.40;99.90
19449;DHT22;9863;49.404;8.246;2023-02-22T07:25:18;2.20;99.90
19449;DHT22;9863;49.404;8.246;2023-02-22T07:27:46;2.40;99.90
19449;DHT22;9863;49.404;8.246;2023-02-22T07:30:17;2.30;99.90
19449;DHT22;9863;49.404;8.246;2023-02-22T07:32:46;2.40;99.90
19449;DHT22;9863;49.404;8.246;2023-02-22T07:35:22;2.50;99.90
19449;DHT22;9863;49.404;8.246;2023-02-22T07:37:54;2.60;99.90
19449;DHT22;9863;49.404;8.246;2023-02-22T07:40:25;2.70;99.90
19449;DHT22;9863;49.404;8.246;2023-02-22T07:45:32;2.70;99.90
19449;DHT22;9863;49.404;8.246;2023-02-22T07:48:02;3.00;99.90
19449;DHT22;9863;49.404;8.246;2023-02-22T07:50:31;2.80;99.90
19449;DHT22;9863;49.404;8.246;2023-02-22T07:53:04;3.20;99.90
19449;DHT22;9863;49.404;8.246;2023-02-22T07:55:32;2.90;99.90
19449;DHT22;9863;49.404;8.246;2023-02-22T07:58:03;3.10;99.90
19449;DHT22;9863;49.404;8.246;2023-02-22T08:00:33;3.00;99.90
19449;DHT22;9863;49.404;8.246;2023-02-22T08:03:10;3.10;99.90
19449;DHT22;9863;49.404;8.246;2023-02-22T08:05:45;3.20;99.90
19449;DHT22;9863;49.404;8.246;2023-02-22T08:08:18;3.30;99.90
19449;DHT22;9863;49.404;8.246;2023-02-22T08:10:46;3.70;99.90
19449;DHT22;9863;49.404;8.246;2023-02-22T08:13:14;3.50;99.90
19449;DHT22;9863;49.404;8.246;2023-02-22T08:15:42;3.50;99.90
19449;DHT22;9863;49.404;8.246;2023-02-22T08:18:12;3.70;99.90
19449;DHT22;9863;49.404;8.246;2023-02-22T08:20:42;3.90;99.90
19449;DHT22;9863;49.404;8.246;2023-02-22T08:23:11;4.10;99.90
19449;DHT22;9863;49.404;8.246;2023-02-22T08:25:40;4.30;99.90
19449;DHT22;9863;49.404;8.246;2023-02-22T08:28:10;4.30;99.90
19449;DHT22;9863;49.404;8.246;2023-02-22T08:30:39;4.50;99.90
19449;DHT22;9863;49.404;8.246;2023-02-22T08:33:09;4.60;99.90
19449;DHT22;9863;49.404;8.246;2023-02-22T08:35:40;4.60;99.90
19449;DHT22;9863;49.404;8.246;2023-02-22T08:38:24;4.70;99.90
19449;DHT22;9863;49.404;8.246;2023-02-22T08:40:53;4.80;99.90
19449;DHT22;9863;49.404;8.246;2023-02-22T08:43:21;4.90;99.90
19449;DHT22;9863;49.404;8.246;2023-02-22T08:45:49;4.90;99.90
19449;DHT22;9863;49.404;8.246;2023-02-22T08:48:18;5.10;99.90
19449;DHT22;9863;49.404;8.246;2023-02-22T08:50:45;5.20;99.90
19449;DHT22;9863;49.404;8.246;2023-02-22T08:53:14;5.30;99.90
19449;DHT22;9863;49.404;8.246;2023-02-22T08:55:42;5.40;99.90
19449;DHT22;9863;49.404;8.246;2023-02-22T08:58:09;5.50;99.90
19449;DHT22;9863;49.404;8.246;2023-02-22T09:00:38;5.70;99.90
19449;DHT22;9863;49.404;8.246;2023-02-22T09:03:09;5.70;99.90
19449;DHT22;9863;49.404;8.246;2023-02-22T09:05:39;5.80;99.90
19449;DHT22;9863;49.404;8.246;2023-02-22T09:08:07;5.90;99.90
19449;DHT22;9863;49.404;8.246;2023-02-22T09:10:34;6.00;99.90
19449;DHT22;9863;49.404;8.246;2023-02-22T09:13:03;6.00;99.90
19449;DHT22;9863;49.404;8.246;2023-02-22T09:15:32;6.10;99.90
19449;DHT22;9863;49.404;8.246;2023-02-22T09:18:02;6.20;99.90
19449;DHT22;9863;49.404;8.246;2023-02-22T09:20:30;6.20;99.90
19449;DHT22;9863;49.404;8.246;2023-02-22T09:22:57;6.40;99.90
19449;DHT22;9863;49.404;8.246;2023-02-22T09:25:25;6.50;99.90
19449;DHT22;9863;49.404;8.246;2023-02-22T09:27:53;6.60;99.90
19449;DHT22;9863;49.404;8.246;2023-02-22T09:30:29;6.70;99.90
19449;DHT22;9863;49.404;8.246;2023-02-22T09:33:01;6.60;99.90
19449;DHT22;9863;49.404;8.246;2023-02-22T09:35:32;6.80;99.90
19449;DHT22;9863;49.404;8.246;2023-02-22T09:38:03;6.90;99.90
19449;DHT22;9863;49.404;8.246;2023-02-22T09:40:36;7.00;99.90
19449;DHT22;9863;49.404;8.246;2023-02-22T09:46:17;7.20;99.90
19449;DHT22;9863;49.404;8.246;2023-02-22T09:51:41;7.40;99.90
19449;DHT22;9863;49.404;8.246;2023-02-22T09:54:34;7.60;99.90
19449;DHT22;9863;49.404;8.246;2023-02-22T09:57:17;7.50;99.90
19449;DHT22;9863;49.404;8.246;2023-02-22T10:00:00;7.50;99.90
19449;DHT22;9863;49.404;8.246;2023-02-22T10:06:02;7.70;99.90
19449;DHT22;9863;49.404;8.246;2023-02-22T10:08:32;7.90;99.90
19449;DHT22;9863;49.404;8.246;2023-02-22T10:17:03;8.00;99.90
19449;DHT22;9863;49.404;8.246;2023-02-22T10:19:40;8.10;99.90
19449;DHT22;9863;49.404;8.246;2023-02-22T10:23:12;8.30;99.90
19449;DHT22;9863;49.404;8.246;2023-02-22T10:25:26;8.40;99.90
19449;DHT22;9863;49.404;8.246;2023-02-22T10:27:57;8.50;99.90
19449;DHT22;9863;49.404;8.246;2023-02-22T10:30:36;8.50;99.90
19449;DHT22;9863;49.404;8.246;2023-02-22T10:33:16;8.60;99.90
19449;DHT22;9863;49.404;8.246;2023-02-22T10:35:47;8.70;99.90
19449;DHT22;9863;49.404;8.246;2023-02-22T10:41:03;8.60;99.90
19449;DHT22;9863;49.404;8.246;2023-02-22T10:43:45;8.90;99.90
19449;DHT22;9863;49.404;8.246;2023-02-22T10:46:15;9.10;99.90
19449;DHT22;9863;49.404;8.246;2023-02-22T10:48:46;9.10;99.90
19449;DHT22;9863;49.404;8.246;2023-02-22T10:51:15;9.30;99.90
19449;DHT22;9863;49.404;8.246;2023-02-22T10:53:43;9.30;99.90
19449;DHT22;9863;49.404;8.246;2023-02-22T10:56:22;9.40;99.90
19449;DHT22;9863;49.404;8.246;2023-02-22T10:58:59;9.50;99.90
19449;DHT22;9863;49.404;8.246;2023-02-22T11:04:12;9.80;99.90
19449;DHT22;9863;49.404;8.246;2023-02-22T11:06:47;10.20;99.90
19449;DHT22;9863;49.404;8.246;2023-02-22T11:09:26;10.40;99.90
19449;DHT22;9863;49.404;8.246;2023-02-22T11:12:15;10.50;99.90
19449;DHT22;9863;49.404;8.246;2023-02-22T11:14:45;10.60;99.90
19449;DHT22;9863;49.404;8.246;2023-02-22T11:17:17;10.80;99.90
19449;DHT22;9863;49.404;8.246;2023-02-22T11:19:54;11.00;99.90
19449;DHT22;9863;49.404;8.246;2023-02-22T11:22:38;11.20;99.90
19449;DHT22;9863;49.404;8.246;2023-02-22T11:25:07;11.30;99.90
19449;DHT22;9863;49.404;8.246;2023-02-22T11:27:43;11.10;99.90
19449;DHT22;9863;49.404;8.246;2023-02-22T11:33:03;11.50;99.90
19449;DHT22;9863;49.404;8.246;2023-02-22T11:35:48;11.60;99.90
19449;DHT22;9863;49.404;8.246;2023-02-22T11:38:30;11.80;99.90
19449;DHT22;9863;49.404;8.246;2023-02-22T11:41:18;11.90;99.90
19449;DHT22;9863;49.404;8.246;2023-02-22T11:43:49;11.90;99.90
19449;DHT22;9863;49.404;8.246;2023-02-22T11:46:20;12.00;99.90
19449;DHT22;9863;49.404;8.246;2023-02-22T11:49:06;12.40;99.90
19449;DHT22;9863;49.404;8.246;2023-02-22T11:54:42;12.10;99.90
19449;DHT22;9863;49.404;8.246;2023-02-22T11:57:45;12.20;99.90
19449;DHT22;9863;49.404;8.246;2023-02-22T12:00:43;12.70;99.90
19449;DHT22;9863;49.404;8.246;2023-02-22T12:06:36;12.80;99.90
19449;DHT22;9863;49.404;8.246;2023-02-22T12:12:11;13.40;99.90
19449;DHT22;9863;49.404;8.246;2023-02-22T12:18:06;13.00;99.90
19449;DHT22;9863;49.404;8.246;2023-02-22T12:20:57;13.20;99.90
19449;DHT22;9863;49.404;8.246;2023-02-22T12:23:41;13.40;99.90
19449;DHT22;9863;49.404;8.246;2023-02-22T12:35:50;14.00;99.90
19449;DHT22;9863;49.404;8.246;2023-02-22T12:44:07;14.40;99.90
19449;DHT22;9863;49.404;8.246;2023-02-22T12:46:50;14.30;99.90
19449;DHT22;9863;49.404;8.246;2023-02-22T12:55:00;14.80;99.90
19449;DHT22;9863;49.404;8.246;2023-02-22T13:00:50;14.70;99.90
19449;DHT22;9863;49.404;8.246;2023-02-22T13:03:35;14.60;99.90
19449;DHT22;9863;49.404;8.246;2023-02-22T13:06:20;14.90;99.90
19449;DHT22;9863;49.404;8.246;2023-02-22T13:12:15;15.00;99.90
19449;DHT22;9863;49.404;8.246;2023-02-22T13:15:01;15.20;99.90
19449;DHT22;9863;49.404;8.246;2023-02-22T13:20:36;15.40;99.90
19449;DHT22;9863;49.404;8.246;2023-02-22T13:23:20;15.20;99.90
19449;DHT22;9863;49.404;8.246;2023-02-22T13:28:54;15.00;99.90
19449;DHT22;9863;49.404;8.246;2023-02-22T13:44:25;14.90;99.90
19449;DHT22;9863;49.404;8.246;2023-02-22T13:52:57;15.40;99.90
19449;DHT22;9863;49.404;8.246;2023-02-22T13:55:30;15.30;99.90
19449;DHT22;9863;49.404;8.246;2023-02-22T13:58:08;15.10;99.90
19449;DHT22;9863;49.404;8.246;2023-02-22T14:10:51;14.90;99.90
19449;DHT22;9863;49.404;8.246;2023-02-22T14:14:17;15.10;99.90
19449;DHT22;9863;49.404;8.246;2023-02-22T14:16:32;15.10;99.90
19449;DHT22;9863;49.404;8.246;2023-02-22T14:21:34;14.90;99.90
19449;DHT22;9863;49.404;8.246;2023-02-22T14:24:08;14.70;99.90
19449;DHT22;9863;49.404;8.246;2023-02-22T14:26:39;14.90;99.90
19449;DHT22;9863;49.404;8.246;2023-02-22T14:34:10;14.90;99.90
19449;DHT22;9863;49.404;8.246;2023-02-22T14:36:50;14.90;99.90
19449;DHT22;9863;49.404;8.246;2023-02-22T14:39:44;14.70;99.90
19449;DHT22;9863;49.404;8.246;2023-02-22T14:50:48;14.80;99.90
19449;DHT22;9863;49.404;8.246;2023-02-22T14:53:40;14.60;99.90
19449;DHT22;9863;49.404;8.246;2023-02-22T14:56:18;14.60;99.90
19449;DHT22;9863;49.404;8.246;2023-02-22T14:58:57;14.50;99.90
19449;DHT22;9863;49.404;8.246;2023-02-22T15:01:35;14.60;99.90
19449;DHT22;9863;49.404;8.246;2023-02-22T15:04:26;14.40;99.90
19449;DHT22;9863;49.404;8.246;2023-02-22T15:06:58;14.50;99.90
19449;DHT22;9863;49.404;8.246;2023-02-22T15:09:29;14.40;99.90
19449;DHT22;9863;49.404;8.246;2023-02-22T15:14:33;14.30;99.90
19449;DHT22;9863;49.404;8.246;2023-02-22T15:17:12;14.30;99.90
19449;DHT22;9863;49.404;8.246;2023-02-22T15:19:45;14.10;99.90
19449;DHT22;9863;49.404;8.246;2023-02-22T15:22:22;14.10;99.90
19449;DHT22;9863;49.404;8.246;2023-02-22T15:25:00;14.00;99.90
19449;DHT22;9863;49.404;8.246;2023-02-22T15:27:29;13.90;99.90
19449;DHT22;9863;49.404;8.246;2023-02-22T15:30:06;13.90;99.90
19449;DHT22;9863;49.404;8.246;2023-02-22T15:32:38;13.70;99.90
19449;DHT22;9863;49.404;8.246;2023-02-22T15:40:43;13.70;99.90
19449;DHT22;9863;49.404;8.246;2023-02-22T15:43:17;13.60;99.90
19449;DHT22;9863;49.404;8.246;2023-02-22T15:45:46;13.60;99.90
19449;DHT22;9863;49.404;8.246;2023-02-22T15:48:13;13.60;99.90
19449;DHT22;9863;49.404;8.246;2023-02-22T15:51:11;13.50;99.90
19449;DHT22;9863;49.404;8.246;2023-02-22T15:53:49;13.50;99.90
19449;DHT22;9863;49.404;8.246;2023-02-22T15:56:25;13.30;99.90
19449;DHT22;9863;49.404;8.246;2023-02-22T15:59:07;13.40;99.90
19449;DHT22;9863;49.404;8.246;2023-02-22T16:01:43;13.30;99.90
19449;DHT22;9863;49.404;8.246;2023-02-22T16:04:23;13.20;99.90
19449;DHT22;9863;49.404;8.246;2023-02-22T16:07:05;13.20;99.90
19449;DHT22;9863;49.404;8.246;2023-02-22T16:09:47;13.10;99.90
19449;DHT22;9863;49.404;8.246;2023-02-22T16:12:25;13.00;99.90
19449;DHT22;9863;49.404;8.246;2023-02-22T16:14:59;13.00;99.90
19449;DHT22;9863;49.404;8.246;2023-02-22T16:17:28;12.90;99.90
19449;DHT22;9863;49.404;8.246;2023-02-22T16:22:40;12.70;99.90
19449;DHT22;9863;49.404;8.246;2023-02-22T16:27:48;12.60;99.90
19449;DHT22;9863;49.404;8.246;2023-02-22T16:32:52;12.60;99.90
19449;DHT22;9863;49.404;8.246;2023-02-22T16:35:23;12.50;99.90
19449;DHT22;9863;49.404;8.246;2023-02-22T16:37:57;12.40;99.90
19449;DHT22;9863;49.404;8.246;2023-02-22T16:40:41;12.30;99.90
19449;DHT22;9863;49.404;8.246;2023-02-22T16:46:08;12.30;99.90
19449;DHT22;9863;49.404;8.246;2023-02-22T16:48:42;12.10;99.90
19449;DHT22;9863;49.404;8.246;2023-02-22T16:51:24;12.00;99.90
19449;DHT22;9863;49.404;8.246;2023-02-22T16:53:53;11.80;99.90
19449;DHT22;9863;49.404;8.246;2023-02-22T16:56:28;11.70;99.90
19449;DHT22;9863;49.404;8.246;2023-02-22T16:59:00;11.60;99.90
19449;DHT22;9863;49.404;8.246;2023-02-22T17:01:32;11.60;99.90
19449;DHT22;9863;49.404;8.246;2023-02-22T17:04:01;11.50;99.90
19449;DHT22;9863;49.404;8.246;2023-02-22T17:06:29;11.40;99.90
19449;DHT22;9863;49.404;8.246;2023-02-22T17:08:57;11.40;99.90
19449;DHT22;9863;49.404;8.246;2023-02-22T17:11:29;11.30;99.90
19449;DHT22;9863;49.404;8.246;2023-02-22T17:13:56;11.30;99.90
19449;DHT22;9863;49.404;8.246;2023-02-22T17:16:23;11.20;99.90
19449;DHT22;9863;49.404;8.246;2023-02-22T17:18:50;11.20;99.90
19449;DHT22;9863;49.404;8.246;2023-02-22T17:21:18;11.20;99.90
19449;DHT22;9863;49.404;8.246;2023-02-22T17:23:46;11.20;99.90
19449;DHT22;9863;49.404;8.246;2023-02-22T17:26:14;11.30;99.90
19449;DHT22;9863;49.404;8.246;2023-02-22T17:28:43;11.30;99.90
19449;DHT22;9863;49.404;8.246;2023-02-22T17:31:19;11.20;99.90
19449;DHT22;9863;49.404;8.246;2023-02-22T17:33:47;11.20;99.90
19449;DHT22;9863;49.404;8.246;2023-02-22T17:36:17;11.30;99.90
19449;DHT22;9863;49.404;8.246;2023-02-22T17:38:45;11.40;99.90
19449;DHT22;9863;49.404;8.246;2023-02-22T17:41:11;11.50;99.90
19449;DHT22;9863;49.404;8.246;2023-02-22T17:43:38;11.40;99.90
19449;DHT22;9863;49.404;8.246;2023-02-22T17:46:06;11.50;99.90
19449;DHT22;9863;49.404;8.246;2023-02-22T17:48:34;11.50;99.90
19449;DHT22;9863;49.404;8.246;2023-02-22T17:51:06;11.50;99.90
19449;DHT22;9863;49.404;8.246;2023-02-22T17:53:37;11.50;99.90
19449;DHT22;9863;49.404;8.246;2023-02-22T17:56:15;11.50;99.90
19449;DHT22;9863;49.404;8.246;2023-02-22T17:58:52;11.40;99.90
19449;DHT22;9863;49.404;8.246;2023-02-22T18:01:29;11.40;99.90
19449;DHT22;9863;49.404;8.246;2023-02-22T18:04:10;11.40;99.90
19449;DHT22;9863;49.404;8.246;2023-02-22T18:06:42;11.30;99.90
19449;DHT22;9863;49.404;8.246;2023-02-22T18:09:10;11.40;99.90
19449;DHT22;9863;49.404;8.246;2023-02-22T18:11:38;11.30;99.90
19449;DHT22;9863;49.404;8.246;2023-02-22T18:14:05;11.20;99.90
19449;DHT22;9863;49.404;8.246;2023-02-22T18:16:35;11.10;99.90
19449;DHT22;9863;49.404;8.246;2023-02-22T18:19:04;11.10;99.90
19449;DHT22;9863;49.404;8.246;2023-02-22T18:21:32;11.10;99.90
19449;DHT22;9863;49.404;8.246;2023-02-22T18:23:59;11.10;99.90
19449;DHT22;9863;49.404;8.246;2023-02-22T18:26:26;11.00;99.90
19449;DHT22;9863;49.404;8.246;2023-02-22T18:28:53;11.00;99.90
19449;DHT22;9863;49.404;8.246;2023-02-22T18:31:22;11.00;99.90
19449;DHT22;9863;49.404;8.246;2023-02-22T18:33:51;11.10;99.90
19449;DHT22;9863;49.404;8.246;2023-02-22T18:36:20;11.00;99.90
19449;DHT22;9863;49.404;8.246;2023-02-22T18:38:51;11.10;99.90
19449;DHT22;9863;49.404;8.246;2023-02-22T18:41:22;11.10;99.90
19449;DHT22;9863;49.404;8.246;2023-02-22T18:43:53;11.10;99.90
19449;DHT22;9863;49.404;8.246;2023-02-22T18:46:25;11.00;99.90
19449;DHT22;9863;49.404;8.246;2023-02-22T18:48:54;11.00;99.90
19449;DHT22;9863;49.404;8.246;2023-02-22T18:51:22;11.00;99.90
19449;DHT22;9863;49.404;8.246;2023-02-22T18:53:50;10.70;99.90
19449;DHT22;9863;49.404;8.246;2023-02-22T18:56:22;10.60;99.90
19449;DHT22;9863;49.404;8.246;2023-02-22T18:58:57;10.40;99.90
19449;DHT22;9863;49.404;8.246;2023-02-22T19:01:29;10.40;99.90
19449;DHT22;9863;49.404;8.246;2023-02-22T19:03:58;10.30;99.90
19449;DHT22;9863;49.404;8.246;2023-02-22T19:06:25;10.30;99.90
19449;DHT22;9863;49.404;8.246;2023-02-22T19:08:52;10.20;99.90
19449;DHT22;9863;49.404;8.246;2023-02-22T19:11:22;10.20;99.90
19449;DHT22;9863;49.404;8.246;2023-02-22T19:13:52;10.10;99.90
19449;DHT22;9863;49.404;8.246;2023-02-22T19:16:23;10.10;99.90
19449;DHT22;9863;49.404;8.246;2023-02-22T19:18:52;10.00;99.90
19449;DHT22;9863;49.404;8.246;2023-02-22T19:21:24;10.00;99.90
19449;DHT22;9863;49.404;8.246;2023-02-22T19:23:53;9.90;99.90
19449;DHT22;9863;49.404;8.246;2023-02-22T19:26:24;10.00;99.90